Time;durP1;ratioP1;P1;durP2;ratioP2;P2;SDS_P1;SDS_P2;PMS_P1;PMS_P2;Temp;Humidity;BMP_temperature;BMP_pressure;BME280_temperature;BME280_humidity;BME280_pressure;Samples;Min_cycle;Max_cycle;Signal;HPM_P1;HPM_P2
2023/11/09 00:00:48;;;;;;;2.47;1.10;;;8.80;99.90;;;;;;5085926;28;20745;-66
2023/11/09 00:03:15;;;;;;;1.23;1.17;;;8.80;99.90;;;;;;5085691;28;20294;-66
2023/11/09 00:05:43;;;;;;;2.77;1.30;;;8.80;99.90;;;;;;5085613;28;20206;-67
2023/11/09 00:08:09;;;;;;;1.53;1.20;;;8.70;99.90;;;;;;5085153;28;20341;-66
2023/11/09 00:10:36;;;;;;;1.93;1.37;;;8.70;99.90;;;;;;5085497;28;20221;-66
2023/11/09 00:13:03;;;;;;;2.50;1.40;;;8.70;99.90;;;;;;5085313;28;20203;-67
2023/11/09 00:15:30;;;;;;;1.50;1.20;;;8.70;99.90;;;;;;5085002;28;20574;-66
2023/11/09 00:17:59;;;;;;;1.70;1.17;;;8.70;99.90;;;;;;5085158;28;20294;-66
2023/11/09 00:20:26;;;;;;;5.27;1.50;;;8.70;99.90;;;;;;5084820;28;20294;-66
2023/11/09 00:22:53;;;;;;;1.53;1.13;;;8.70;99.90;;;;;;5084885;28;20662;-66
2023/11/09 00:25:21;;;;;;;1.20;1.20;;;8.70;99.90;;;;;;5084980;28;20206;-66
2023/11/09 00:27:47;;;;;;;1.13;1.13;;;8.70;99.90;;;;;;5084878;28;20661;-66
2023/11/09 00:30:15;;;;;;;1.30;1.20;;;8.70;99.90;;;;;;5085075;28;20203;-66
2023/11/09 00:32:42;;;;;;;3.47;1.53;;;8.70;99.90;;;;;;5084697;28;20642;-67
2023/11/09 00:35:10;;;;;;;2.37;1.40;;;8.70;99.90;;;;;;5084429;28;20669;-67
2023/11/09 00:37:38;;;;;;;2.50;1.00;;;8.70;99.90;;;;;;5085298;28;20635;-66
2023/11/09 00:40:09;;;;;;;3.50;1.77;;;8.70;99.90;;;;;;5084468;28;20202;-66
2023/11/09 00:42:36;;;;;;;1.60;1.20;;;8.70;99.90;;;;;;5084890;28;20329;-66
2023/11/09 00:45:03;;;;;;;1.53;1.40;;;8.70;99.90;;;;;;5085040;28;20238;-66
2023/11/09 00:47:30;;;;;;;2.50;1.20;;;8.70;99.90;;;;;;5084502;28;20210;-66
2023/11/09 00:49:57;;;;;;;1.73;1.20;;;8.70;99.90;;;;;;5084714;28;20207;-66
2023/11/09 00:52:26;;;;;;;3.47;1.13;;;8.70;99.90;;;;;;5084857;28;20198;-66
2023/11/09 00:54:53;;;;;;;1.50;1.40;;;8.70;99.90;;;;;;5085053;28;20297;-66
2023/11/09 00:57:20;;;;;;;2.13;1.20;;;8.70;99.90;;;;;;5084838;28;20207;-66
2023/11/09 00:59:48;;;;;;;1.90;1.20;;;8.70;99.90;;;;;;5085056;28;20211;-66
2023/11/09 01:02:16;;;;;;;2.13;1.43;;;8.70;99.90;;;;;;5084706;28;20213;-66
2023/11/09 01:04:43;;;;;;;1.40;1.30;;;8.70;99.90;;;;;;5085015;28;20198;-66
2023/11/09 01:07:10;;;;;;;3.30;1.40;;;8.70;99.90;;;;;;5084217;28;20912;-66
2023/11/09 01:09:38;;;;;;;1.73;1.60;;;8.60;99.90;;;;;;5084856;28;20603;-66
2023/11/09 01:12:06;;;;;;;1.90;1.47;;;8.60;99.90;;;;;;5084903;28;20213;-66
2023/11/09 01:14:33;;;;;;;1.53;1.20;;;8.70;99.90;;;;;;5084779;28;21018;-66
2023/11/09 01:17:00;;;;;;;3.10;1.20;;;8.70;99.90;;;;;;5084131;28;20207;-66
2023/11/09 01:19:27;;;;;;;1.90;1.00;;;8.70;99.90;;;;;;5084372;28;20236;-66
2023/11/09 01:21:54;;;;;;;1.23;1.13;;;8.70;99.90;;;;;;5084376;28;20245;-66
2023/11/09 01:24:21;;;;;;;1.50;1.40;;;8.70;99.90;;;;;;5084637;28;20211;-66
2023/11/09 01:26:49;;;;;;;1.20;1.10;;;8.70;99.90;;;;;;5084447;28;20653;-66
2023/11/09 01:29:17;;;;;;;1.47;1.10;;;8.70;99.90;;;;;;5084229;28;20730;-66
2023/11/09 01:31:44;;;;;;;2.20;1.60;;;8.70;99.90;;;;;;5083840;28;20248;-66
2023/11/09 01:34:11;;;;;;;2.37;1.13;;;8.70;99.90;;;;;;5084285;28;20669;-67
2023/11/09 01:36:39;;;;;;;1.03;0.93;;;8.70;99.90;;;;;;5084471;28;20635;-66
2023/11/09 01:39:06;;;;;;;3.63;1.30;;;8.70;99.90;;;;;;5083273;28;20259;-66
2023/11/09 01:41:33;;;;;;;3.07;1.30;;;8.70;99.90;;;;;;5084689;28;20758;-66
2023/11/09 01:44:01;;;;;;;1.57;1.40;;;8.70;99.90;;;;;;5084399;28;20631;-66
2023/11/09 01:46:29;;;;;;;0.97;0.97;;;8.60;99.90;;;;;;5084282;28;20998;-67
2023/11/09 01:48:57;;;;;;;1.33;1.23;;;8.70;99.90;;;;;;5084764;28;20234;-67
2023/11/09 01:51:24;;;;;;;2.37;1.30;;;8.70;99.90;;;;;;5084531;28;20639;-66
2023/11/09 01:53:52;;;;;;;1.40;1.30;;;8.60;99.90;;;;;;5084912;28;20302;-66
2023/11/09 01:56:20;;;;;;;3.07;1.30;;;8.60;99.90;;;;;;5088377;28;20294;-66
2023/11/09 01:58:49;;;;;;;1.10;1.00;;;8.60;99.90;;;;;;5088089;28;20250;-66
2023/11/09 02:01:18;;;;;;;1.53;1.37;;;8.60;99.90;;;;;;5087426;28;20222;-67
2023/11/09 02:03:45;;;;;;;1.50;1.20;;;8.60;99.90;;;;;;5088019;28;20256;-66
2023/11/09 02:06:12;;;;;;;1.27;1.17;;;8.60;99.90;;;;;;5088144;28;20225;-66
2023/11/09 02:08:40;;;;;;;3.23;1.20;;;8.60;99.90;;;;;;5087604;28;20308;-66
2023/11/09 02:11:07;;;;;;;1.93;1.30;;;8.50;99.90;;;;;;5087724;28;20206;-67
2023/11/09 02:13:34;;;;;;;1.17;1.07;;;8.50;99.90;;;;;;5087534;28;20206;-66
2023/11/09 02:16:02;;;;;;;1.30;1.03;;;8.50;99.90;;;;;;5097792;28;20248;-67
2023/11/09 02:18:32;;;;;;;3.47;1.30;;;8.50;99.90;;;;;;5089260;28;20286;-66
2023/11/09 02:20:59;;;;;;;1.20;1.00;;;8.50;99.90;;;;;;5105114;28;20202;-66
2023/11/09 02:23:33;;;;;;;1.30;1.20;;;8.50;99.90;;;;;;5107812;28;20297;-66
2023/11/09 02:26:01;;;;;;;1.20;1.10;;;8.50;99.90;;;;;;5108412;28;20220;-66
2023/11/09 02:28:28;;;;;;;1.33;1.17;;;8.50;99.90;;;;;;5107897;28;20222;-66
2023/11/09 02:30:55;;;;;;;1.03;1.03;;;8.60;99.90;;;;;;5107141;28;20232;-66
2023/11/09 02:33:22;;;;;;;1.40;1.30;;;8.60;99.90;;;;;;5087478;28;20297;-66
2023/11/09 02:35:49;;;;;;;3.70;1.27;;;8.60;99.90;;;;;;5087537;28;20203;-66
2023/11/09 02:38:16;;;;;;;1.03;1.03;;;8.60;99.90;;;;;;5086162;28;20215;-66
2023/11/09 02:40:43;;;;;;;3.27;1.33;;;8.60;99.90;;;;;;5087518;28;20242;-66
2023/11/09 02:43:11;;;;;;;1.93;1.27;;;8.60;99.90;;;;;;5087440;28;20306;-67
2023/11/09 02:45:38;;;;;;;2.53;1.27;;;8.60;99.90;;;;;;5086899;28;20233;-66
2023/11/09 02:48:06;;;;;;;1.40;1.30;;;8.60;99.90;;;;;;5086926;28;20205;-66
2023/11/09 02:50:33;;;;;;;2.10;1.20;;;8.60;99.90;;;;;;5086823;28;20211;-66
2023/11/09 02:53:00;;;;;;;2.33;1.20;;;8.60;99.90;;;;;;5086769;28;20286;-66
2023/11/09 02:55:27;;;;;;;1.37;1.17;;;8.60;99.90;;;;;;5087147;28;20207;-66
2023/11/09 02:57:54;;;;;;;1.53;1.10;;;8.60;99.90;;;;;;5087167;28;20301;-67
2023/11/09 03:00:22;;;;;;;1.47;1.00;;;8.50;99.90;;;;;;5086689;28;20286;-66
2023/11/09 03:02:49;;;;;;;1.20;1.10;;;8.50;99.90;;;;;;5087026;28;20217;-66
2023/11/09 03:05:21;;;;;;;2.73;1.23;;;8.50;99.90;;;;;;5087233;28;20289;-66
2023/11/09 03:07:47;;;;;;;2.20;1.40;;;8.50;99.90;;;;;;5086521;28;20234;-66
2023/11/09 03:10:15;;;;;;;1.20;1.10;;;8.50;99.90;;;;;;5086861;28;20273;-66
2023/11/09 03:12:42;;;;;;;0.87;0.87;;;8.50;99.90;;;;;;5086350;28;20203;-66
2023/11/09 03:15:10;;;;;;;1.97;1.20;;;8.50;99.90;;;;;;5086713;28;20306;-67
2023/11/09 03:17:41;;;;;;;2.40;1.10;;;8.50;99.90;;;;;;5086143;28;20293;-67
2023/11/09 03:20:10;;;;;;;3.23;1.23;;;8.50;99.90;;;;;;5086854;28;20295;-67
2023/11/09 03:22:37;;;;;;;2.90;1.27;;;8.50;99.90;;;;;;5086695;28;20215;-66
2023/11/09 03:25:06;;;;;;;1.30;0.93;;;8.50;99.90;;;;;;5085899;28;20206;-66
2023/11/09 03:27:33;;;;;;;2.73;1.30;;;8.60;99.90;;;;;;5086217;28;20210;-67
2023/11/09 03:30:00;;;;;;;1.27;1.10;;;8.60;99.90;;;;;;5086047;28;20242;-66
2023/11/09 03:32:26;;;;;;;1.23;1.00;;;8.60;99.90;;;;;;5083985;28;20203;-67
2023/11/09 03:34:55;;;;;;;1.47;1.37;;;8.60;99.90;;;;;;5084877;28;20890;-66
2023/11/09 03:37:31;;;;;;;3.80;0.80;;;8.60;99.90;;;;;;5076876;28;20210;-66
2023/11/09 03:39:58;;;;;;;1.30;1.20;;;8.60;99.90;;;;;;5084080;28;20207;-67
2023/11/09 03:42:27;;;;;;;1.90;1.10;;;8.70;99.90;;;;;;5082395;28;20625;-67
2023/11/09 03:44:54;;;;;;;1.07;0.70;;;8.70;99.90;;;;;;5077938;28;20203;-67
2023/11/09 03:47:21;;;;;;;0.93;0.90;;;8.70;99.90;;;;;;5078188;28;20233;-66
2023/11/09 03:49:47;;;;;;;5.87;1.40;;;8.70;99.90;;;;;;5079081;28;20230;-66
2023/11/09 03:52:16;;;;;;;1.90;0.90;;;8.70;99.90;;;;;;5083770;28;20213;-66
2023/11/09 03:54:42;;;;;;;1.50;0.90;;;8.70;99.90;;;;;;5083822;28;20297;-67
2023/11/09 03:57:09;;;;;;;1.00;1.00;;;8.80;99.90;;;;;;5083805;28;20206;-66
2023/11/09 03:59:36;;;;;;;0.97;0.83;;;8.80;99.90;;;;;;5083968;28;20326;-66
2023/11/09 04:02:04;;;;;;;1.17;1.13;;;8.80;99.90;;;;;;5073244;28;20578;-66
2023/11/09 04:04:30;;;;;;;4.43;0.90;;;8.80;99.90;;;;;;5076290;28;20770;-66
2023/11/09 04:06:58;;;;;;;0.83;0.77;;;8.80;99.90;;;;;;5084528;28;20248;-67
2023/11/09 04:09:26;;;;;;;1.03;0.93;;;8.80;99.90;;;;;;5084894;28;20270;-67
2023/11/09 04:11:54;;;;;;;1.10;0.90;;;8.80;99.90;;;;;;5084873;28;20268;-66
2023/11/09 04:14:20;;;;;;;1.60;0.90;;;8.80;99.90;;;;;;5084476;28;20203;-66
2023/11/09 04:16:47;;;;;;;1.30;1.00;;;8.80;99.90;;;;;;5084380;28;20210;-66
2023/11/09 04:19:16;;;;;;;1.47;1.20;;;8.90;99.90;;;;;;5085014;28;20305;-66
2023/11/09 04:21:44;;;;;;;0.80;0.80;;;8.90;99.90;;;;;;5085007;28;20294;-66
2023/11/09 04:24:11;;;;;;;2.17;1.00;;;8.90;99.90;;;;;;5084898;28;20210;-67
2023/11/09 04:26:39;;;;;;;1.10;1.00;;;8.90;99.90;;;;;;5085054;28;20309;-66
2023/11/09 04:29:10;;;;;;;0.90;0.90;;;9.00;99.90;;;;;;5085143;28;21048;-66
2023/11/09 04:31:37;;;;;;;1.47;0.87;;;9.00;99.90;;;;;;5085085;28;20677;-66
2023/11/09 04:34:08;;;;;;;1.03;1.03;;;9.10;99.90;;;;;;5085322;28;20245;-66
2023/11/09 04:36:40;;;;;;;1.07;1.03;;;9.00;99.90;;;;;;5085511;28;20645;-66
2023/11/09 04:39:08;;;;;;;1.67;0.90;;;9.00;99.90;;;;;;5083781;28;20199;-67
2023/11/09 04:41:35;;;;;;;0.90;0.90;;;9.10;99.90;;;;;;5085018;28;20656;-66
2023/11/09 04:44:04;;;;;;;0.97;0.77;;;9.10;99.90;;;;;;5084706;28;20624;-66
2023/11/09 04:46:33;;;;;;;1.93;0.80;;;9.10;99.90;;;;;;5084615;28;20206;-66
2023/11/09 04:49:06;;;;;;;1.10;1.00;;;9.10;99.90;;;;;;5085064;28;20227;-66
2023/11/09 04:51:33;;;;;;;2.30;1.00;;;9.10;99.90;;;;;;5084734;28;20276;-66
2023/11/09 04:54:06;;;;;;;1.20;1.00;;;9.10;99.90;;;;;;5084676;28;20314;-66
2023/11/09 04:56:42;;;;;;;0.80;0.80;;;9.10;99.90;;;;;;5085085;28;20401;-66
2023/11/09 05:07:26;;;;;;;0.87;0.87;;;9.10;99.90;;;;;;5084342;28;20263;-66
2023/11/09 05:09:53;;;;;;;2.53;0.97;;;9.10;99.90;;;;;;5084298;28;20234;-66
2023/11/09 05:12:20;;;;;;;0.80;0.80;;;9.20;99.90;;;;;;5084265;28;20281;-66
2023/11/09 05:14:48;;;;;;;0.83;0.80;;;9.20;99.90;;;;;;5084557;28;20241;-66
2023/11/09 05:17:15;;;;;;;1.90;0.80;;;9.20;99.90;;;;;;5084318;28;20294;-66
2023/11/09 05:19:43;;;;;;;0.93;0.60;;;9.20;99.90;;;;;;5084389;28;20206;-66
2023/11/09 05:22:10;;;;;;;0.90;0.90;;;9.20;99.90;;;;;;5084235;28;20513;-66
2023/11/09 05:24:38;;;;;;;2.10;0.67;;;9.30;99.90;;;;;;5084379;28;20305;-67
2023/11/09 05:27:06;;;;;;;0.90;0.90;;;9.30;99.90;;;;;;5084266;28;20567;-66
2023/11/09 05:29:34;;;;;;;1.67;1.00;;;9.20;99.90;;;;;;5086978;28;20243;-66
2023/11/09 05:32:06;;;;;;;0.80;0.80;;;9.30;99.90;;;;;;5088316;28;20217;-66
2023/11/09 05:34:33;;;;;;;2.27;0.97;;;9.30;99.90;;;;;;5088258;28;20198;-66
2023/11/09 05:37:00;;;;;;;1.17;0.90;;;9.30;99.90;;;;;;5088188;28;20281;-66
2023/11/09 05:39:27;;;;;;;2.07;1.10;;;9.30;99.90;;;;;;5088018;28;20236;-66
2023/11/09 05:41:54;;;;;;;1.70;1.10;;;9.30;99.90;;;;;;5088221;28;20673;-66
2023/11/09 05:44:21;;;;;;;0.70;0.70;;;9.30;99.90;;;;;;5088200;28;20199;-66
2023/11/09 05:46:48;;;;;;;0.70;0.70;;;9.30;99.90;;;;;;5087974;28;20207;-66
2023/11/09 05:49:16;;;;;;;3.03;1.20;;;9.30;99.90;;;;;;5087708;28;20232;-66
2023/11/09 05:51:45;;;;;;;1.00;0.90;;;9.40;99.90;;;;;;5088204;28;20290;-66
2023/11/09 05:54:12;;;;;;;1.00;0.90;;;9.30;99.90;;;;;;5087549;28;20242;-66
2023/11/09 05:56:41;;;;;;;2.33;0.80;;;9.40;99.90;;;;;;5087679;28;20955;-66
2023/11/09 05:59:09;;;;;;;1.30;1.20;;;9.40;99.90;;;;;;5087616;28;20202;-66
2023/11/09 06:01:35;;;;;;;0.80;0.80;;;9.40;99.90;;;;;;5086956;28;20218;-66
2023/11/09 06:04:03;;;;;;;0.90;0.90;;;9.40;99.90;;;;;;5087051;28;20298;-66
2023/11/09 06:06:31;;;;;;;1.70;0.90;;;9.40;99.90;;;;;;5088118;28;20629;-66
2023/11/09 06:08:58;;;;;;;1.70;0.97;;;9.40;99.90;;;;;;5095567;28;20218;-66
2023/11/09 06:11:29;;;;;;;1.90;1.03;;;9.40;99.90;;;;;;5108278;28;20229;-66
2023/11/09 06:13:56;;;;;;;1.30;0.80;;;9.40;99.90;;;;;;5108106;28;20261;-66
2023/11/09 06:16:23;;;;;;;0.93;0.83;;;9.40;99.90;;;;;;5103264;28;20203;-66
2023/11/09 06:18:49;;;;;;;2.43;0.90;;;9.40;99.90;;;;;;5087668;28;20203;-66
2023/11/09 06:21:16;;;;;;;1.37;0.80;;;9.50;99.90;;;;;;5087697;28;20298;-66
2023/11/09 06:23:45;;;;;;;1.90;1.10;;;9.50;99.90;;;;;;5087322;28;20211;-66
2023/11/09 06:26:11;;;;;;;0.97;0.90;;;9.50;99.90;;;;;;5087015;28;20242;-66
2023/11/09 06:28:38;;;;;;;0.80;0.80;;;9.40;99.90;;;;;;5087515;28;22234;-67
2023/11/09 06:31:06;;;;;;;1.10;1.07;;;9.50;99.90;;;;;;5087166;28;20233;-66
2023/11/09 06:33:34;;;;;;;1.10;1.00;;;9.50;99.90;;;;;;5087489;28;20882;-66
2023/11/09 06:36:00;;;;;;;1.43;1.10;;;9.50;99.90;;;;;;5087322;28;20203;-67
2023/11/09 06:38:27;;;;;;;1.30;0.80;;;9.50;99.90;;;;;;5088392;28;20297;-66
2023/11/09 06:40:56;;;;;;;2.77;0.73;;;9.50;99.90;;;;;;5087031;28;20203;-66
2023/11/09 06:43:25;;;;;;;1.37;0.90;;;9.60;99.90;;;;;;5086985;28;20657;-66
2023/11/09 06:45:51;;;;;;;1.37;0.90;;;9.50;99.90;;;;;;5086873;28;20743;-66
2023/11/09 06:48:18;;;;;;;0.70;0.70;;;9.60;99.90;;;;;;5087363;28;20217;-66
2023/11/09 06:50:45;;;;;;;0.97;0.87;;;9.60;99.90;;;;;;5087038;28;20287;-66
2023/11/09 06:53:17;;;;;;;3.07;1.03;;;9.60;99.90;;;;;;5087295;28;20246;-66
2023/11/09 06:55:45;;;;;;;0.83;0.80;;;9.60;99.90;;;;;;5087206;28;20191;-67
2023/11/09 06:58:13;;;;;;;1.40;1.00;;;9.60;99.90;;;;;;5086859;28;20218;-66
2023/11/09 07:00:40;;;;;;;2.43;1.03;;;9.60;99.90;;;;;;5086726;28;20301;-66
2023/11/09 07:03:07;;;;;;;2.87;1.13;;;9.60;99.90;;;;;;5086693;28;20217;-66
2023/11/09 07:05:34;;;;;;;0.83;0.83;;;9.60;99.90;;;;;;5087182;28;20226;-66
2023/11/09 07:08:02;;;;;;;2.50;1.00;;;9.60;99.90;;;;;;5086439;28;20230;-67
2023/11/09 07:10:28;;;;;;;3.13;0.80;;;9.70;99.90;;;;;;5066777;28;20239;-66
2023/11/09 07:12:56;;;;;;;1.07;0.90;;;9.70;99.90;;;;;;5073143;28;20289;-66
2023/11/09 07:15:26;;;;;;;2.27;1.20;;;9.70;99.90;;;;;;5086650;28;20206;-66
2023/11/09 07:17:54;;;;;;;2.70;1.27;;;9.70;99.90;;;;;;5086902;28;20226;-65
2023/11/09 07:20:21;;;;;;;0.70;0.70;;;9.70;99.90;;;;;;5082674;28;20219;-66
2023/11/09 07:22:51;;;;;;;1.77;0.80;;;9.70;99.90;;;;;;5066295;28;20212;-66
2023/11/09 07:25:18;;;;;;;3.37;1.00;;;9.70;99.90;;;;;;5066055;28;20662;-66
2023/11/09 07:27:45;;;;;;;3.10;1.33;;;9.70;99.90;;;;;;5077396;28;20207;-66
2023/11/09 07:30:12;;;;;;;2.43;1.20;;;9.70;99.90;;;;;;5085950;28;20648;-66
2023/11/09 07:32:40;;;;;;;1.33;1.00;;;9.70;99.90;;;;;;5085975;28;20298;-66
2023/11/09 07:35:09;;;;;;;1.47;0.90;;;9.70;99.90;;;;;;5085973;28;20213;-66
2023/11/09 07:37:36;;;;;;;2.40;0.90;;;9.70;99.90;;;;;;5086453;28;20292;-66
2023/11/09 07:40:04;;;;;;;0.80;0.67;;;9.80;99.90;;;;;;5102384;28;20296;-66
2023/11/09 07:42:31;;;;;;;2.00;1.27;;;9.80;99.90;;;;;;5106807;28;20205;-66
2023/11/09 07:44:58;;;;;;;1.00;1.00;;;9.80;99.90;;;;;;5106686;28;20659;-66
2023/11/09 07:47:25;;;;;;;1.10;1.00;;;9.80;99.90;;;;;;5106181;28;20206;-66
2023/11/09 07:49:54;;;;;;;1.83;1.00;;;9.80;99.90;;;;;;5106310;28;20202;-66
2023/11/09 07:52:21;;;;;;;10.63;1.53;;;9.80;99.90;;;;;;5105361;28;20229;-66
2023/11/09 07:54:48;;;;;;;2.33;0.90;;;9.80;99.90;;;;;;5106035;28;20296;-66
2023/11/09 07:57:15;;;;;;;0.80;0.77;;;9.80;99.90;;;;;;5106212;28;20214;-66
2023/11/09 07:59:45;;;;;;;4.07;1.17;;;9.80;99.90;;;;;;5105917;28;20773;-66
2023/11/09 08:02:12;;;;;;;1.23;1.13;;;9.80;99.90;;;;;;5105719;28;20650;-66
2023/11/09 08:04:41;;;;;;;1.10;1.10;;;9.90;99.90;;;;;;5105881;28;20210;-66
2023/11/09 08:07:09;;;;;;;0.80;0.80;;;9.90;99.90;;;;;;5105328;28;20315;-66
2023/11/09 08:09:37;;;;;;;1.87;0.80;;;9.90;99.90;;;;;;5093188;28;20214;-66
2023/11/09 08:12:05;;;;;;;3.13;1.00;;;9.90;99.90;;;;;;5085258;28;20234;-66
2023/11/09 08:14:32;;;;;;;1.10;1.03;;;9.90;99.90;;;;;;5085073;28;20209;-66
2023/11/09 08:17:00;;;;;;;1.40;1.30;;;10.00;99.90;;;;;;5085303;28;20195;-66
2023/11/09 08:19:27;;;;;;;1.87;1.10;;;10.00;99.90;;;;;;5085435;28;20290;-67
2023/11/09 08:21:53;;;;;;;6.50;5.47;;;10.00;99.90;;;;;;5085706;28;20633;-67
2023/11/09 08:24:22;;;;;;;4.70;3.13;;;10.10;99.90;;;;;;5085194;28;20665;-66
2023/11/09 08:26:48;;;;;;;2.60;1.07;;;10.10;99.90;;;;;;5085652;28;20294;-66
2023/11/09 08:29:15;;;;;;;1.83;1.13;;;10.10;99.90;;;;;;5085282;28;20223;-66
2023/11/09 08:31:43;;;;;;;1.00;0.97;;;10.10;99.90;;;;;;5085254;28;20249;-66
2023/11/09 08:34:11;;;;;;;1.50;0.80;;;10.10;99.90;;;;;;5085298;28;21062;-66
2023/11/09 08:36:38;;;;;;;1.00;1.00;;;10.20;99.90;;;;;;5085672;28;20214;-66
2023/11/09 08:39:09;;;;;;;1.03;0.73;;;10.20;99.90;;;;;;5085085;28;20203;-67
2023/11/09 08:41:38;;;;;;;3.53;1.30;;;10.20;99.90;;;;;;5085199;28;20202;-67
2023/11/09 08:44:06;;;;;;;3.30;0.90;;;10.20;99.90;;;;;;5085037;28;20203;-67
2023/11/09 08:46:33;;;;;;;2.23;0.90;;;10.20;99.90;;;;;;5085428;28;20218;-66
2023/11/09 08:49:03;;;;;;;2.20;0.80;;;10.20;99.90;;;;;;5085269;28;20217;-66
2023/11/09 08:51:30;;;;;;;1.90;0.90;;;10.20;99.90;;;;;;5084953;28;20711;-66
2023/11/09 08:53:57;;;;;;;1.13;0.87;;;10.30;99.90;;;;;;5085040;28;20207;-66
2023/11/09 08:56:25;;;;;;;0.90;0.80;;;10.30;99.90;;;;;;5085146;28;20276;-66
2023/11/09 08:58:53;;;;;;;2.40;0.87;;;10.30;99.90;;;;;;5085054;28;20694;-66
2023/11/09 09:01:20;;;;;;;0.77;0.77;;;10.30;99.90;;;;;;5084947;28;20239;-66
2023/11/09 09:03:49;;;;;;;1.13;0.80;;;10.40;99.90;;;;;;5085010;28;20213;-67
2023/11/09 09:06:17;;;;;;;1.73;0.87;;;10.40;99.90;;;;;;5086382;28;20297;-66
2023/11/09 09:08:45;;;;;;;1.23;0.77;;;10.40;99.90;;;;;;5090007;28;20231;-66
2023/11/09 09:11:14;;;;;;;1.63;0.90;;;10.50;99.90;;;;;;5105212;28;20266;-66
2023/11/09 09:13:41;;;;;;;1.00;0.90;;;10.50;99.90;;;;;;5094743;28;20247;-66
2023/11/09 09:16:09;;;;;;;3.03;0.90;;;10.50;99.90;;;;;;5084989;28;20206;-66
2023/11/09 09:18:37;;;;;;;0.83;0.83;;;10.50;99.90;;;;;;5084844;28;20207;-66
2023/11/09 09:21:08;;;;;;;0.83;0.80;;;10.50;99.90;;;;;;5084992;28;20578;-66
2023/11/09 09:23:35;;;;;;;2.10;0.80;;;10.50;99.90;;;;;;5085212;28;20495;-66
2023/11/09 09:26:03;;;;;;;3.33;0.90;;;10.60;99.90;;;;;;5084804;28;20218;-67
2023/11/09 09:28:30;;;;;;;3.33;0.93;;;10.60;99.90;;;;;;5085153;28;20226;-67
2023/11/09 09:30:57;;;;;;;1.20;1.10;;;10.60;99.90;;;;;;5085229;28;20284;-66
2023/11/09 09:33:26;;;;;;;1.57;0.90;;;10.60;99.90;;;;;;5085146;28;20203;-66
2023/11/09 09:35:53;;;;;;;1.03;0.80;;;10.70;99.90;;;;;;5084941;28;20229;-66
2023/11/09 09:38:21;;;;;;;0.60;0.60;;;10.70;99.90;;;;;;5083065;28;20203;-67
2023/11/09 09:40:49;;;;;;;1.93;1.00;;;10.70;99.90;;;;;;5064581;28;20211;-67
2023/11/09 09:43:19;;;;;;;1.80;0.83;;;10.80;99.90;;;;;;5064241;28;20290;-66
2023/11/09 09:45:47;;;;;;;1.20;0.70;;;10.80;99.90;;;;;;5064340;28;20295;-66
2023/11/09 09:48:14;;;;;;;1.10;1.00;;;10.80;99.90;;;;;;5064472;28;20211;-66
2023/11/09 09:50:42;;;;;;;1.00;1.00;;;10.80;99.90;;;;;;5064183;28;20314;-66
2023/11/09 09:53:09;;;;;;;1.27;1.00;;;10.80;99.90;;;;;;5064085;28;20302;-68
2023/11/09 09:55:37;;;;;;;1.43;0.90;;;10.90;99.90;;;;;;5064283;28;20218;-66
2023/11/09 09:58:05;;;;;;;1.23;0.90;;;10.80;99.90;;;;;;5064157;28;20257;-66
2023/11/09 10:00:33;;;;;;;1.43;1.00;;;10.80;99.90;;;;;;5064002;28;20210;-66
2023/11/09 10:03:02;;;;;;;0.90;0.90;;;10.80;99.90;;;;;;5081545;28;20218;-66
2023/11/09 10:05:33;;;;;;;0.90;0.90;;;10.80;99.90;;;;;;5083952;28;20206;-66
2023/11/09 10:08:07;;;;;;;1.10;0.87;;;10.80;99.90;;;;;;5083791;28;20241;-66
2023/11/09 10:10:37;;;;;;;0.93;0.83;;;10.80;99.90;;;;;;5064217;28;20249;-66
2023/11/09 10:13:07;;;;;;;1.60;1.00;;;10.80;99.90;;;;;;5064107;28;20191;-66
2023/11/09 10:15:35;;;;;;;2.00;0.97;;;10.80;99.90;;;;;;5066076;28;20215;-66
2023/11/09 10:18:02;;;;;;;0.97;0.90;;;10.80;99.90;;;;;;5067416;28;20215;-66
2023/11/09 10:20:29;;;;;;;3.33;2.93;;;10.80;99.90;;;;;;5080028;28;20210;-66
2023/11/09 10:22:57;;;;;;;6.37;3.80;;;10.80;99.90;;;;;;5087517;28;20207;-67
2023/11/09 10:25:28;;;;;;;1.50;1.40;;;10.80;99.90;;;;;;5087410;28;20695;-66
2023/11/09 10:28:00;;;;;;;6.10;1.07;;;10.80;99.90;;;;;;5087495;28;20230;-66
2023/11/09 10:30:29;;;;;;;0.90;0.90;;;10.80;99.90;;;;;;5087531;28;20251;-66
2023/11/09 10:33:05;;;;;;;2.13;1.17;;;10.80;99.90;;;;;;5087471;28;20563;-67
2023/11/09 10:35:32;;;;;;;1.90;1.00;;;10.80;99.90;;;;;;5087423;28;20317;-66
2023/11/09 10:38:01;;;;;;;1.73;1.20;;;10.80;99.90;;;;;;5087418;28;20226;-66
2023/11/09 10:40:31;;;;;;;0.93;0.80;;;10.90;99.90;;;;;;5087369;28;20207;-66
2023/11/09 10:43:01;;;;;;;2.47;0.80;;;10.90;99.90;;;;;;5087419;28;20590;-66
2023/11/09 10:45:30;;;;;;;1.93;0.73;;;10.90;99.90;;;;;;5087292;28;20207;-66
2023/11/09 10:47:59;;;;;;;1.30;1.00;;;10.90;99.90;;;;;;5087464;28;20284;-66
2023/11/09 10:50:28;;;;;;;0.87;0.87;;;10.90;99.90;;;;;;5087323;28;20724;-66
2023/11/09 10:52:57;;;;;;;0.60;0.60;;;10.90;99.90;;;;;;5087262;28;20231;-66
2023/11/09 10:55:25;;;;;;;1.13;1.07;;;10.90;99.90;;;;;;5086925;28;20226;-66
2023/11/09 10:57:54;;;;;;;2.70;0.97;;;11.00;99.90;;;;;;5087165;28;20988;-66
2023/11/09 11:00:31;;;;;;;1.30;1.20;;;11.00;99.90;;;;;;5086651;28;20576;-66
2023/11/09 11:03:08;;;;;;;2.60;1.27;;;11.00;99.90;;;;;;5086930;28;20252;-66
2023/11/09 11:05:41;;;;;;;1.37;1.17;;;11.00;99.90;;;;;;5086613;28;20246;-66
2023/11/09 11:08:13;;;;;;;2.37;1.67;;;11.10;99.90;;;;;;5086424;28;20616;-66
2023/11/09 11:10:46;;;;;;;4.60;0.93;;;11.10;99.90;;;;;;5086561;28;20195;-66
2023/11/09 11:13:17;;;;;;;1.77;1.30;;;11.00;99.90;;;;;;5086990;28;20195;-66
2023/11/09 11:16:05;;;;;;;1.53;1.10;;;11.10;99.90;;;;;;5086878;28;21158;-66
2023/11/09 11:18:51;;;;;;;1.20;1.10;;;11.10;99.90;;;;;;5086675;28;20293;-66
2023/11/09 11:21:31;;;;;;;1.93;1.20;;;11.10;99.90;;;;;;5086689;28;20194;-66
2023/11/09 11:24:29;;;;;;;2.70;0.80;;;11.10;99.90;;;;;;5086305;28;20555;-66
2023/11/09 11:27:07;;;;;;;1.10;1.00;;;11.10;99.90;;;;;;5086643;28;20273;-66
2023/11/09 11:29:39;;;;;;;2.50;1.40;;;11.20;99.90;;;;;;5086611;28;20270;-67
2023/11/09 11:32:09;;;;;;;1.30;1.20;;;11.20;99.90;;;;;;5086310;28;20229;-66
2023/11/09 11:34:46;;;;;;;1.50;1.10;;;11.20;99.90;;;;;;5086623;28;20207;-66
2023/11/09 11:37:17;;;;;;;1.13;0.90;;;11.20;99.90;;;;;;5086381;28;20199;-66
2023/11/09 11:39:43;;;;;;;0.93;0.93;;;11.30;99.90;;;;;;5099551;28;20216;-66
2023/11/09 11:42:17;;;;;;;1.10;1.00;;;11.30;99.90;;;;;;5106471;28;20206;-66
2023/11/09 11:44:50;;;;;;;1.40;1.30;;;11.30;99.90;;;;;;5106382;28;20201;-66
2023/11/09 11:47:18;;;;;;;1.20;1.10;;;11.40;99.90;;;;;;5105755;28;20209;-67
2023/11/09 11:49:48;;;;;;;1.87;1.00;;;11.40;99.90;;;;;;5105666;28;20206;-66
2023/11/09 11:52:18;;;;;;;2.33;0.97;;;11.40;99.90;;;;;;5105741;28;20229;-66
2023/11/09 11:54:45;;;;;;;1.37;0.87;;;11.50;99.90;;;;;;5094201;28;20214;-66
2023/11/09 11:57:13;;;;;;;3.10;0.90;;;11.50;99.90;;;;;;5085723;28;20221;-66
2023/11/09 11:59:41;;;;;;;0.80;0.80;;;11.50;99.90;;;;;;5085473;28;20210;-66
2023/11/09 12:02:12;;;;;;;0.70;0.70;;;11.40;99.90;;;;;;5077527;28;20238;-66
2023/11/09 12:04:47;;;;;;;0.80;0.80;;;11.40;99.90;;;;;;5064969;28;20290;-67
2023/11/09 12:07:18;;;;;;;2.07;0.83;;;11.40;99.90;;;;;;5065202;28;20231;-66
2023/11/09 12:09:47;;;;;;;2.30;0.93;;;11.40;99.90;;;;;;5064980;28;20216;-66
2023/11/09 12:12:15;;;;;;;1.03;0.83;;;11.40;99.90;;;;;;5065165;28;20237;-67
2023/11/09 12:14:43;;;;;;;0.97;0.90;;;11.50;99.90;;;;;;5080385;28;20301;-66
2023/11/09 12:17:11;;;;;;;0.80;0.80;;;11.50;99.90;;;;;;5085159;28;20250;-66
2023/11/09 12:19:38;;;;;;;6.53;3.80;;;11.50;99.90;;;;;;5085463;28;20203;-66
2023/11/09 12:22:07;;;;;;;5.80;1.20;;;11.60;99.90;;;;;;5085304;28;20369;-66
2023/11/09 12:24:35;;;;;;;1.07;0.67;;;11.60;99.90;;;;;;5085076;28;20206;-67
2023/11/09 12:27:06;;;;;;;0.87;0.87;;;11.60;99.90;;;;;;5085032;28;20297;-66
2023/11/09 12:29:33;;;;;;;0.90;0.90;;;11.70;99.90;;;;;;5085073;28;20285;-66
2023/11/09 12:32:00;;;;;;;1.53;0.80;;;11.70;99.90;;;;;;5084379;28;20968;-66
2023/11/09 12:34:35;;;;;;;1.00;0.80;;;11.70;99.90;;;;;;5085058;28;20662;-67
2023/11/09 12:37:03;;;;;;;1.80;0.83;;;11.80;99.90;;;;;;5084766;28;20191;-66
2023/11/09 12:39:31;;;;;;;1.23;1.13;;;11.80;99.90;;;;;;5085588;28;20668;-66
2023/11/09 12:41:59;;;;;;;1.00;1.00;;;11.80;99.90;;;;;;5085352;28;20213;-66
2023/11/09 12:44:29;;;;;;;1.77;1.07;;;11.80;99.90;;;;;;5084896;28;20206;-66
2023/11/09 12:46:57;;;;;;;1.07;0.97;;;11.80;99.90;;;;;;5085186;28;20230;-66
2023/11/09 12:49:26;;;;;;;1.57;0.90;;;11.80;99.90;;;;;;5084858;28;20609;-66
2023/11/09 12:51:56;;;;;;;0.70;0.70;;;11.80;99.90;;;;;;5084609;28;20321;-66
2023/11/09 12:54:23;;;;;;;0.97;0.80;;;11.80;99.90;;;;;;5084689;28;20298;-66
2023/11/09 12:56:55;;;;;;;0.97;0.97;;;11.80;99.90;;;;;;5084437;28;20210;-66
2023/11/09 12:59:25;;;;;;;1.07;0.90;;;11.80;99.90;;;;;;5084575;28;20234;-67
2023/11/09 13:01:55;;;;;;;2.10;0.83;;;11.80;99.90;;;;;;5084526;28;20195;-66
2023/11/09 13:04:23;;;;;;;2.33;1.13;;;11.70;99.90;;;;;;5084843;28;20683;-66
2023/11/09 13:06:50;;;;;;;1.80;0.90;;;11.70;99.90;;;;;;5084914;28;20234;-66